VTPBVTPP

Guest
Details From VTPB - Phetchabun
To VTPP - Phitsanulok
Flight Number -
Tags generated
Created
Modified
Stats Distance 54 nm / 99 km
Max Altitude 6,500 ft / 1,981 m
Waypoints 4
Social Downloads 0
Likes 0
Share VATSIM

Download

Looking for another format? Having issues loading an existing format? Contact us
Advertisement - Login to hide

Notes

Basic altitude profile: - Ascent Rate: 2500ft/min - Ascent Speed: 250kts - Cruise Altitude: 35000ft - Cruise Speed: 420kts - Descent Rate: 1500ft/min - Descent Speed: 250kts Options: - Use NATs: yes - Use PACOTS: yes - Use low airways: yes - Use high airways: yes

Route

VTPB PCB W26 PSL VTPP

ID Type Via Altitude Latitude Longitude Leg Dist Tot Dist Heading (true) Name
O VTPB APT - 0 ft / 0 m 16.67603˚ 101.19511˚ - 0 nm - Phetchabun
PCB VOR - 0 ft / 0 m 16.67602˚ 101.19670˚ 0 nm 0 nm 90° / 90° PHETCHABUN VOR-DME
PSL VOR W26 (AWY-LO) 6,500 ft / 1,981 m 16.77037˚ 100.29131˚ 52 nm 52 nm 276° / 276° PHITSANULOK VOR-DME
O VTPP APT - 0 ft / 0 m 16.78294˚ 100.27912˚ 1 nm 53 nm 317° / 317° Phitsanulok

Altitude Profile

Advertisement - Login to hide

VTPB

Details ICAO VTPB (PHY)
Name Phetchabun
Region Thailand
Timezone Asia/Bangkok (UTC+7.0)
Stats Elevation 450 ft / 137 m (AMSL)
Location 16.676029° 101.195109°
Runways 1
Magnetic Variation 0.744° W

METAR

Not found

TAF

TAF VTPB 161700Z 1618/1718 07005KT 8000 FEW035

Decode

Departure Runways

ID Width Length Bearing (true) Bearing (mag) Surface Threshold Offset Overrun Length
18 148 ft / 45 m 6,930 ft / 2,112 m 180.05° 180.79° Asphalt 0 ft / 0 m 197 ft / 60 m
36 148 ft / 45 m 6,930 ft / 2,112 m 0.05° 0.79° Asphalt 0 ft / 0 m 197 ft / 60 m

VTPP

Details ICAO VTPP (PHS)
Name Phitsanulok
Region Thailand
Timezone Asia/Bangkok (UTC+7.0)
Stats Elevation 145 ft / 44 m (AMSL)
Location 16.782939° 100.279122°
Runways 1
Magnetic Variation 0.714° W

METAR

Not found

TAF

TAF VTPP 161700Z 1618/1718 07005KT 9999 FEW035

Decode

Destination Runways

ID Width Length Bearing (true) Bearing (mag) Surface Threshold Offset Overrun Length
14 148 ft / 45 m 9,871 ft / 3,009 m 144.06° 144.77° Asphalt 0 ft / 0 m 0 ft / 0 m
32 148 ft / 45 m 9,871 ft / 3,009 m 324.06° 324.77° Asphalt 0 ft / 0 m 0 ft / 0 m

Approach Navaids

Runway Type Ident Frequency Range Bearing (true) Bearing (mag) Slope Elevation
32 Localiser IPSL 110.10 MHz 18 nm / 33 km 324.05° 324.77° - 159 ft / 48 m (AMSL)
32 Glidescope IPSL 110.10 MHz 10 nm / 19 km 324.06° 324.77° 3.00° 145 ft / 44 m (AMSL)
32 DME IPSL 110.10 MHz 18 nm / 33 km - - - 145 ft / 44 m (AMSL)